Time;durP1;ratioP1;P1;durP2;ratioP2;P2;SDS_P1;SDS_P2;PMS_P1;PMS_P2;Temp;Humidity;BMP_temperature;BMP_pressure;BME280_temperature;BME280_humidity;BME280_pressure;Samples;Min_cycle;Max_cycle;Signal;HPM_P1;HPM_P2
2024/01/31 08:49:15;;;;;;;3.17;1.50;;;;;;;;;;5062618;28;20287;-77
2024/01/31 08:51:43;;;;;;;2.35;1.77;;;;;;;;;;5062606;28;20627;-78
2024/01/31 08:54:10;;;;;;;2.20;2.10;;;;;;;;;;5075064;28;20207;-78
2024/01/31 08:56:38;;;;;;;1.80;1.70;;;;;;;;;;5091217;22;20228;-89
2024/01/31 08:59:05;;;;;;;1.85;1.33;;;;;;;;;;5085114;28;20311;-89
2024/01/31 09:01:33;;;;;;;1.48;1.38;;;;;;;;;;5082288;28;20293;-89
2024/01/31 09:04:00;;;;;;;1.30;1.20;;;;;;;;;;5089782;28;20210;-89
2024/01/31 09:06:29;;;;;;;1.50;1.40;;;;;;;;;;5084670;28;20216;-91
2024/01/31 09:08:57;;;;;;;3.53;2.90;;;;;;;;;;5085063;28;20588;-90
2024/01/31 09:11:24;;;;;;;3.22;2.17;;;;;;;;;;5083107;28;20307;-90
2024/01/31 09:13:52;;;;;;;4.60;3.30;;;;;;;;;;5081987;28;20287;-89
2024/01/31 09:16:19;;;;;;;3.33;2.45;;;;;;;;;;5091794;28;20653;-89
2024/01/31 09:18:47;;;;;;;1.85;1.75;;;;;;;;;;5087573;28;20299;-89
2024/01/31 09:21:22;;;;;;;1.90;1.73;;;;;;;;;;5082181;28;20287;-90
2024/01/31 09:23:50;;;;;;;2.47;1.95;;;;;;;;;;5081913;28;20204;-90
2024/01/31 09:26:18;;;;;;;1.80;1.70;;;;;;;;;;5083422;28;20292;-90
2024/01/31 09:28:46;;;;;;;2.10;1.92;;;;;;;;;;5092634;28;20331;-89
2024/01/31 09:31:22;;;;;;;1.75;1.65;;;;;;;;;;5083829;28;20779;-89
2024/01/31 09:33:50;;;;;;;1.60;1.48;;;;;;;;;;5082206;28;20200;-89
2024/01/31 09:36:17;;;;;;;1.58;1.48;;;;;;;;;;5083274;28;20290;-89
2024/01/31 09:38:47;;;;;;;1.83;1.73;;;;;;;;;;5084744;28;20307;-90
2024/01/31 09:41:17;;;;;;;1.95;1.85;;;;;;;;;;5093266;28;20646;-89
2024/01/31 09:43:45;;;;;;;2.13;1.92;;;;;;;;;;5084597;28;20196;-89
2024/01/31 09:46:12;;;;;;;2.30;2.20;;;;;;;;;;5083830;28;20664;-89
2024/01/31 09:48:41;;;;;;;2.25;2.05;;;;;;;;;;5085238;28;20311;-90
2024/01/31 09:51:09;;;;;;;4.22;2.20;;;;;;;;;;5084057;28;20220;-90
2024/01/31 09:53:37;;;;;;;2.25;2.08;;;;;;;;;;5081357;28;20286;-90
2024/01/31 09:56:07;;;;;;;2.55;2.35;;;;;;;;;;5080770;28;20240;-89
2024/01/31 09:58:36;;;;;;;2.20;2.05;;;;;;;;;;5076842;28;20323;-89
2024/01/31 10:01:05;;;;;;;3.55;2.00;;;;;;;;;;5092896;28;20291;-89
2024/01/31 10:03:33;;;;;;;1.80;1.70;;;;;;;;;;5093286;28;20192;-89
2024/01/31 10:06:03;;;;;;;3.63;2.00;;;;;;;;;;5085979;28;20207;-89
2024/01/31 10:08:30;;;;;;;2.15;1.95;;;;;;;;;;5084370;28;20228;-89
2024/01/31 10:10:58;;;;;;;3.47;3.17;;;;;;;;;;5101472;28;20287;-89
2024/01/31 10:13:25;;;;;;;2.00;1.90;;;;;;;;;;5084645;28;20285;-89
2024/01/31 10:15:54;;;;;;;2.03;1.92;;;;;;;;;;5092813;28;20214;-89
2024/01/31 10:18:22;;;;;;;2.92;2.05;;;;;;;;;;5094807;28;20240;-90
2024/01/31 10:20:51;;;;;;;2.40;2.25;;;;;;;;;;5091379;28;20204;-89
2024/01/31 10:23:19;;;;;;;2.70;2.50;;;;;;;;;;5095222;28;20208;-89
2024/01/31 10:25:47;;;;;;;3.50;3.20;;;;;;;;;;5088474;28;20581;-90
2024/01/31 10:28:18;;;;;;;2.63;2.42;;;;;;;;;;5096011;28;20781;-90
2024/01/31 10:30:46;;;;;;;3.13;2.80;;;;;;;;;;5085499;28;20224;-90
2024/01/31 10:33:16;;;;;;;2.65;2.13;;;;;;;;;;5087748;28;20231;-89
2024/01/31 10:35:45;;;;;;;1.60;1.50;;;;;;;;;;5088654;28;20196;-88
2024/01/31 10:38:15;;;;;;;1.58;1.48;;;;;;;;;;5088946;28;20317;-89
2024/01/31 10:40:43;;;;;;;2.00;1.90;;;;;;;;;;5088954;28;20284;-90
2024/01/31 10:43:11;;;;;;;1.42;1.33;;;;;;;;;;5096609;28;20606;-89
2024/01/31 10:45:39;;;;;;;1.50;1.40;;;;;;;;;;5088341;28;20203;-89
2024/01/31 10:48:07;;;;;;;1.67;1.58;;;;;;;;;;5087811;28;20212;-88
2024/01/31 10:50:36;;;;;;;1.50;1.40;;;;;;;;;;5085121;28;20205;-89
2024/01/31 10:53:06;;;;;;;1.60;1.50;;;;;;;;;;5084664;28;20292;-89
2024/01/31 10:55:34;;;;;;;1.88;1.77;;;;;;;;;;5084689;28;20296;-90
2024/01/31 10:58:04;;;;;;;1.55;1.45;;;;;;;;;;5084445;28;20307;-90
2024/01/31 11:00:32;;;;;;;1.90;1.80;;;;;;;;;;5088016;28;20287;-90
2024/01/31 11:03:00;;;;;;;1.80;1.70;;;;;;;;;;5096272;28;20214;-89
2024/01/31 11:05:29;;;;;;;2.30;2.10;;;;;;;;;;5088309;28;20212;-90
2024/01/31 11:07:58;;;;;;;1.15;1.08;;;;;;;;;;5087052;28;20234;-90
2024/01/31 11:10:27;;;;;;;1.98;1.80;;;;;;;;;;5087055;28;20228;-89
2024/01/31 11:13:00;;;;;;;2.10;1.80;;;;;;;;;;5090386;28;20361;-91
2024/01/31 11:15:30;;;;;;;2.22;1.90;;;;;;;;;;5086247;28;20521;-90
2024/01/31 11:18:09;;;;;;;2.63;1.80;;;;;;;;;;5089252;28;20232;-91
2024/01/31 11:20:39;;;;;;;1.73;1.63;;;;;;;;;;5085281;28;20646;-90
2024/01/31 11:23:08;;;;;;;1.23;1.17;;;;;;;;;;5084139;28;20280;-90
2024/01/31 11:25:38;;;;;;;2.03;1.92;;;;;;;;;;5083874;28;20201;-89
2024/01/31 11:28:06;;;;;;;1.67;1.58;;;;;;;;;;5083176;28;20250;-89
2024/01/31 11:30:34;;;;;;;1.95;1.77;;;;;;;;;;5087321;28;20267;-89
2024/01/31 11:33:03;;;;;;;2.63;2.42;;;;;;;;;;5103997;28;20220;-89
2024/01/31 11:35:30;;;;;;;2.38;1.85;;;;;;;;;;5103893;28;20697;-89
2024/01/31 11:37:58;;;;;;;2.13;1.95;;;;;;;;;;5087225;28;20307;-89
2024/01/31 11:40:28;;;;;;;5.10;4.65;;;;;;;;;;5084697;28;20283;-89
2024/01/31 11:42:57;;;;;;;4.90;4.40;;;;;;;;;;5084021;28;20223;-89
2024/01/31 11:45:26;;;;;;;2.20;2.00;;;;;;;;;;5085990;28;20201;-89
2024/01/31 11:47:55;;;;;;;2.95;2.65;;;;;;;;;;5089372;28;20247;-89
2024/01/31 11:50:22;;;;;;;2.63;2.42;;;;;;;;;;5086672;28;20285;-89
2024/01/31 11:52:51;;;;;;;2.40;2.20;;;;;;;;;;5087790;28;20231;-90
2024/01/31 11:55:22;;;;;;;1.95;1.85;;;;;;;;;;5086342;28;20201;-89
2024/01/31 11:57:51;;;;;;;1.70;1.60;;;;;;;;;;5084289;28;20616;-89
2024/01/31 12:00:20;;;;;;;1.90;1.80;;;;;;;;;;5092168;28;20294;-90
2024/01/31 12:02:48;;;;;;;8.57;7.43;;;;;;;;;;5090036;28;20583;-90
2024/01/31 12:05:16;;;;;;;3.83;3.28;;;;;;;;;;5088058;28;20650;-90
2024/01/31 12:07:44;;;;;;;2.58;2.38;;;;;;;;;;5087112;28;20295;-89
2024/01/31 12:10:12;;;;;;;1.90;1.80;;;;;;;;;;5087765;28;20208;-89
2024/01/31 12:12:42;;;;;;;2.40;2.20;;;;;;;;;;5082854;28;20765;-89
2024/01/31 13:09:36;;;;;;;2.20;2.08;;;;;;;;;;5064443;28;20274;-79
2024/01/31 13:12:04;;;;;;;2.92;2.42;;;;;;;;;;5086644;28;20746;-77
2024/01/31 13:14:31;;;;;;;2.50;2.30;;;;;;;;;;5090087;28;20204;-77
2024/01/31 13:16:59;;;;;;;1.73;1.63;;;;;;;;;;5083287;28;20225;-77
2024/01/31 13:19:26;;;;;;;3.38;2.63;;;;;;;;;;5065976;28;20229;-75
2024/01/31 13:21:54;;;;;;;6.18;2.72;;;;;;;;;;5053560;28;20208;-77
2024/01/31 13:24:21;;;;;;;2.35;2.13;;;;;;;;;;5060958;28;20207;-77
2024/01/31 13:26:50;;;;;;;1.65;1.55;;;;;;;;;;5058450;28;20597;-80
2024/01/31 13:29:18;;;;;;;3.70;2.60;;;;;;;;;;5073226;28;20292;-77
2024/01/31 13:31:46;;;;;;;3.78;2.70;;;;;;;;;;5061564;28;20232;-79
2024/01/31 13:34:13;;;;;;;3.20;2.15;;;;;;;;;;5072039;28;20317;-79
2024/01/31 13:36:41;;;;;;;1.70;1.60;;;;;;;;;;5068718;28;20715;-79
2024/01/31 14:24:26;;;;;;;2.00;1.80;;;;;;;;;;5065619;28;20296;-78
